首页
METAR-TAF:

METAR-TAF

机场 :

安托法加斯塔, 智利

纬度: 23-26S, 经度: 070-26W, 海拔: 135米

当前天气观测

该预报发布于56分钟前的00:00 UTC
风速8节,风向南转西南
温度 14°C
湿度 72%
气压 1018 hPa
能见度10公里或以上
阴天层高于1600英尺

METAR: SCFA 210000Z 21008KT 9999 OVC016 14/09 Q1018 NOSIG

时间: 20:56 (00:56 UTC)

预报

该预报发布于2小时和11分钟前的22:45 UTC
预报有效从21日的 00点(UTC)到 21日的 24点(UTC)
风速4节,风向
能见度10公里或以上
阴天层高于1400英尺
成为
从 21日的 07点(UTC)到 21日的 09点(UTC)
风速4节,风向北转东北
成为
从 21日的 15点(UTC)到 21日的 17点(UTC)
多云层高于1500英尺
成为
从 21日的 16点(UTC)到 21日的 18点(UTC)
风速10节,风向西南
成为
从 21日的 20点(UTC)到 21日的 22点(UTC)
风速4节,风向
阴天层高于1200英尺

TAF: SCFA 202245Z 2100/2124 19004KT 9999 OVC014 TN12/2106Z TX15/2118Z BECMG 2107/2109 03004KT BECMG 2115/2117 BKN015 BECMG 2116/2118 22010KT BECMG 2120/2122 19004KT OVC012

超过4000个机场的气象观测和天气预报(METAR&TAF报告)。

可查询的气象台以黄色和红色小点在地图上表示。

将鼠标移到小点上方,可查看气象台名称。

然后点击查看天气观测和预报。

如需切换地图:点击带黑十字的绿色按钮放大地图;点击带横线的绿色按钮缩小地图;或者点击绿色箭头查看邻近地区的地图。


METAR-TAF: